createdAt,value
2019-04-26T00:00:21.875Z,774.00
2019-04-26T00:01:22.363Z,774.00
2019-04-26T00:02:22.802Z,774.00
2019-04-26T00:03:23.233Z,774.00
2019-04-26T00:04:22.794Z,773.00
2019-04-26T00:05:34.502Z,773.00
2019-04-26T00:06:23.581Z,774.00
2019-04-26T00:07:24.963Z,775.00
2019-04-26T00:08:24.350Z,778.00
2019-04-26T00:09:25.661Z,776.00
2019-04-26T00:10:26.195Z,778.00
2019-04-26T00:11:26.099Z,776.00
2019-04-26T00:12:27.385Z,775.00
2019-04-26T00:13:26.732Z,776.00
2019-04-26T00:14:27.024Z,776.00
2019-04-26T00:15:28.522Z,775.00
2019-04-26T00:16:27.946Z,774.00
2019-04-26T00:17:29.402Z,774.00
2019-04-26T00:18:29.403Z,774.00
2019-04-26T00:19:29.923Z,773.00
2019-04-26T00:20:29.442Z,773.00
2019-04-26T00:21:30.921Z,773.00
2019-04-26T00:22:30.390Z,773.00
2019-04-26T00:23:31.814Z,772.00
2019-04-26T00:24:31.224Z,770.00
2019-04-26T00:25:32.640Z,771.00
2019-04-26T00:26:33.045Z,770.00
2019-04-26T00:27:33.480Z,772.00
2019-04-26T00:28:34.060Z,770.00
2019-04-26T00:29:34.474Z,769.00
2019-04-26T00:30:35.218Z,769.00
2019-04-26T00:31:35.797Z,769.00
2019-04-26T00:32:36.188Z,769.00
2019-04-26T00:32:44.743Z,769.00
2019-04-26T00:33:46.120Z,769.00
2019-04-26T00:34:46.741Z,770.00
2019-04-26T00:35:47.891Z,773.00
2019-04-26T00:36:47.165Z,772.00
2019-04-26T00:37:48.419Z,770.00
2019-04-26T00:38:48.693Z,770.00
2019-04-26T00:39:48.966Z,772.00
2019-04-26T00:40:49.290Z,774.00
2019-04-26T00:41:49.742Z,775.00
2019-04-26T00:42:50.176Z,775.00
2019-04-26T00:43:50.531Z,776.00
2019-04-26T00:44:50.753Z,775.00
2019-04-26T00:45:51.066Z,773.00
2019-04-26T00:46:51.745Z,773.00
2019-04-26T00:47:52.154Z,773.00
2019-04-26T00:48:52.719Z,773.00
2019-04-26T00:49:52.133Z,774.00
2019-04-26T00:50:53.627Z,774.00
2019-04-26T00:51:54.100Z,775.00
2019-04-26T00:52:54.555Z,773.00
2019-04-26T00:53:54.026Z,773.00
2019-04-26T00:54:55.400Z,772.00
2019-04-26T00:55:55.465Z,770.00
2019-04-26T00:56:55.893Z,769.00
2019-04-26T00:57:56.477Z,772.00
2019-04-26T00:58:56.906Z,770.00
2019-04-26T00:59:57.447Z,769.00
2019-04-26T01:00:57.864Z,769.00
2019-04-26T01:01:58.361Z,769.00
2019-04-26T01:02:58.704Z,773.00
2019-04-26T01:03:59.174Z,772.00
2019-04-26T01:04:59.531Z,772.00
2019-04-26T01:06:00.407Z,772.00
2019-04-26T01:06:59.188Z,773.00
2019-04-26T01:08:00.661Z,772.00
2019-04-26T01:09:01.161Z,774.00
2019-04-26T01:10:01.408Z,776.00
2019-04-26T01:11:02.004Z,776.00
2019-04-26T01:12:02.421Z,775.00
2019-04-26T01:13:02.810Z,775.00
2019-04-26T01:14:03.215Z,774.00
2019-04-26T01:15:03.698Z,777.00
2019-04-26T01:16:04.212Z,776.00
2019-04-26T01:17:04.641Z,776.00
2019-04-26T01:18:04.967Z,777.00
2019-04-26T01:19:05.668Z,776.00
2019-04-26T01:20:06.062Z,775.00
2019-04-26T01:20:14.657Z,774.00
2019-04-26T01:21:17.110Z,775.00
2019-04-26T01:22:15.557Z,774.00
2019-04-26T01:23:17.493Z,773.00
2019-04-26T01:24:16.893Z,774.00
2019-04-26T01:25:17.518Z,774.00
2019-04-26T01:26:17.733Z,774.00
2019-04-26T01:27:17.128Z,776.00
2019-04-26T01:28:18.490Z,776.00
2019-04-26T01:29:18.599Z,777.00
2019-04-26T01:30:18.356Z,780.00
2019-04-26T01:31:18.640Z,776.00
2019-04-26T01:32:19.215Z,775.00
2019-04-26T01:33:20.033Z,775.00
2019-04-26T01:34:20.343Z,775.00
2019-04-26T01:35:20.369Z,775.00
2019-04-26T01:36:20.538Z,776.00
2019-04-26T01:37:20.662Z,777.00
2019-04-26T01:38:21.794Z,780.00
2019-04-26T01:39:22.349Z,780.00
2019-04-26T01:40:22.040Z,778.00
2019-04-26T01:41:22.362Z,778.00
2019-04-26T01:42:22.671Z,776.00
2019-04-26T01:43:24.424Z,777.00
2019-04-26T01:44:24.558Z,778.00
2019-04-26T01:45:23.711Z,778.00
2019-04-26T01:46:25.071Z,780.00
2019-04-26T01:47:26.254Z,778.00
2019-04-26T01:48:25.070Z,778.00
2019-04-26T01:49:26.189Z,777.00
2019-04-26T01:50:25.751Z,776.00
2019-04-26T01:51:27.133Z,776.00
2019-04-26T01:52:27.782Z,774.00
2019-04-26T01:53:28.795Z,774.00
2019-04-26T01:54:27.830Z,775.00
2019-04-26T01:55:29.073Z,774.00
2019-04-26T01:56:29.210Z,774.00
2019-04-26T01:57:29.437Z,774.00
2019-04-26T01:58:29.335Z,773.00
2019-04-26T01:59:29.527Z,772.00
2019-04-26T02:00:29.583Z,772.00
2019-04-26T02:01:29.850Z,772.00
2019-04-26T02:02:32.001Z,770.00
2019-04-26T02:03:30.615Z,771.00
2019-04-26T02:04:32.070Z,770.00
2019-04-26T02:05:32.017Z,770.00
2019-04-26T02:06:34.910Z,770.00
2019-04-26T02:07:32.522Z,770.00
2019-04-26T02:08:32.483Z,770.00
2019-04-26T02:09:32.793Z,770.00
2019-04-26T02:10:32.940Z,772.00
2019-04-26T02:11:34.363Z,772.00
2019-04-26T02:12:34.763Z,774.00
2019-04-26T02:13:35.139Z,780.00
2019-04-26T02:14:35.547Z,781.00
2019-04-26T02:15:35.847Z,780.00
2019-04-26T02:16:36.155Z,780.00
2019-04-26T02:17:36.389Z,778.00
2019-04-26T02:18:36.775Z,778.00
2019-04-26T02:19:37.156Z,778.00
2019-04-26T02:20:37.431Z,776.00
2019-04-26T02:21:37.813Z,776.00
2019-04-26T02:22:38.478Z,776.00
2019-04-26T02:23:38.154Z,778.00
2019-04-26T02:24:39.418Z,777.00
2019-04-26T02:25:39.755Z,776.00
2019-04-26T02:26:40.104Z,775.00
2019-04-26T02:27:40.594Z,774.00
2019-04-26T02:28:41.236Z,776.00
2019-04-26T02:29:41.693Z,774.00
2019-04-26T02:30:42.246Z,774.00
2019-04-26T02:31:42.717Z,773.00
2019-04-26T02:32:43.072Z,773.00
2019-04-26T02:33:43.607Z,772.00
2019-04-26T02:34:44.067Z,773.00
2019-04-26T02:34:52.599Z,773.00
2019-04-26T02:35:53.945Z,773.00
2019-04-26T02:36:58.513Z,774.00
2019-04-26T02:37:53.736Z,775.00
2019-04-26T02:38:55.405Z,774.00
2019-04-26T02:39:55.696Z,774.00
2019-04-26T02:40:55.958Z,775.00
2019-04-26T02:41:56.245Z,775.00
2019-04-26T02:42:55.649Z,774.00
2019-04-26T02:43:56.918Z,773.00
2019-04-26T02:44:57.505Z,773.00
2019-04-26T02:45:58.058Z,772.00
2019-04-26T02:46:58.384Z,773.00
2019-04-26T02:47:58.844Z,773.00
2019-04-26T02:48:59.450Z,774.00
2019-04-26T02:49:59.742Z,773.00
2019-04-26T02:51:00.156Z,774.00
2019-04-26T02:52:00.527Z,773.00
2019-04-26T02:53:00.930Z,772.00
2019-04-26T02:54:01.407Z,774.00
2019-04-26T02:55:01.848Z,775.00
2019-04-26T02:56:02.772Z,776.00
2019-04-26T02:57:03.211Z,780.00
2019-04-26T02:58:03.566Z,778.00
2019-04-26T02:59:03.973Z,783.00
2019-04-26T03:00:04.370Z,783.00
2019-04-26T03:01:04.707Z,782.00
2019-04-26T03:02:05.052Z,783.00
2019-04-26T03:03:05.311Z,782.00
2019-04-26T03:04:05.629Z,781.00
2019-04-26T03:05:06.426Z,784.00
2019-04-26T03:06:06.760Z,784.00
2019-04-26T03:07:07.384Z,782.00
2019-04-26T03:08:07.851Z,781.00
2019-04-26T03:09:08.212Z,780.00
2019-04-26T03:10:08.770Z,781.00
2019-04-26T03:11:07.763Z,780.00
2019-04-26T03:12:09.202Z,783.00
2019-04-26T03:13:09.580Z,783.00
2019-04-26T03:14:09.993Z,782.00
2019-04-26T03:15:14.120Z,782.00
2019-04-26T03:16:09.875Z,782.00
2019-04-26T03:17:11.272Z,783.00
2019-04-26T03:18:11.702Z,782.00
2019-04-26T03:19:12.131Z,782.00
2019-04-26T03:20:12.451Z,782.00
2019-04-26T03:21:13.047Z,782.00
2019-04-26T03:21:21.570Z,782.00
2019-04-26T03:22:22.860Z,782.00
2019-04-26T03:23:23.224Z,782.00
2019-04-26T03:24:23.643Z,784.00
2019-04-26T03:25:23.890Z,784.00
2019-04-26T03:26:24.208Z,781.00
2019-04-26T03:27:24.560Z,778.00
2019-04-26T03:28:25.142Z,778.00
2019-04-26T03:29:24.428Z,775.00
2019-04-26T03:30:25.941Z,776.00
2019-04-26T03:31:25.352Z,775.00
2019-04-26T03:32:26.754Z,775.00
2019-04-26T03:33:27.161Z,774.00
2019-04-26T03:34:26.497Z,774.00
2019-04-26T03:35:27.889Z,774.00
2019-04-26T03:36:28.151Z,775.00
2019-04-26T03:37:28.498Z,775.00
2019-04-26T03:38:29.126Z,775.00
2019-04-26T03:39:29.520Z,775.00
2019-04-26T03:40:29.905Z,774.00
2019-04-26T03:41:30.164Z,774.00
2019-04-26T03:42:30.606Z,775.00
2019-04-26T03:43:30.843Z,776.00
2019-04-26T03:44:31.202Z,775.00
2019-04-26T03:45:30.429Z,774.00
2019-04-26T03:46:31.813Z,775.00
2019-04-26T03:47:30.995Z,775.00
2019-04-26T03:48:33.929Z,775.00
2019-04-26T03:49:31.843Z,776.00
2019-04-26T03:50:35.242Z,775.00
2019-04-26T03:51:33.808Z,775.00
2019-04-26T03:52:35.334Z,774.00
2019-04-26T03:53:35.464Z,775.00
2019-04-26T03:55:54.648Z,776.00
2019-04-26T03:56:55.165Z,776.00
2019-04-26T03:57:56.516Z,776.00
2019-04-26T03:58:56.780Z,777.00
2019-04-26T03:59:57.323Z,776.00
2019-04-26T04:00:57.663Z,775.00
2019-04-26T04:01:58.109Z,775.00
2019-04-26T04:02:58.657Z,776.00
2019-04-26T04:03:58.988Z,775.00
2019-04-26T04:04:59.269Z,774.00
2019-04-26T04:05:59.715Z,776.00
2019-04-26T04:07:04.724Z,778.00
2019-04-26T04:07:59.698Z,780.00
2019-04-26T04:09:01.148Z,782.00
2019-04-26T04:10:01.657Z,783.00
2019-04-26T04:11:02.109Z,783.00
2019-04-26T04:12:10.818Z,783.00
2019-04-26T04:13:01.943Z,782.00
2019-04-26T04:14:03.456Z,782.00
2019-04-26T04:15:02.657Z,784.00
2019-04-26T04:16:02.919Z,781.00
2019-04-26T04:17:04.327Z,778.00
2019-04-26T04:18:04.624Z,778.00
2019-04-26T04:19:04.899Z,777.00
2019-04-26T04:20:05.269Z,776.00
2019-04-26T04:21:05.628Z,776.00
2019-04-26T04:22:05.120Z,776.00
2019-04-26T04:23:06.461Z,775.00
2019-04-26T04:24:06.708Z,775.00
2019-04-26T04:25:07.024Z,775.00
2019-04-26T04:26:07.518Z,776.00
2019-04-26T04:27:07.909Z,775.00
2019-04-26T04:28:08.360Z,778.00
2019-04-26T04:29:08.708Z,778.00
2019-04-26T04:30:09.123Z,780.00
2019-04-26T04:31:09.484Z,780.00
2019-04-26T04:32:10.192Z,780.00
2019-04-26T04:33:09.932Z,781.00
2019-04-26T04:34:11.438Z,781.00
2019-04-26T04:35:11.954Z,782.00
2019-04-26T04:36:12.410Z,782.00
2019-04-26T04:37:12.661Z,782.00
2019-04-26T04:38:12.961Z,778.00
2019-04-26T04:39:13.495Z,778.00
2019-04-26T04:40:12.784Z,780.00
2019-04-26T04:41:14.065Z,782.00
2019-04-26T04:42:14.447Z,780.00
2019-04-26T04:42:22.990Z,780.00
2019-04-26T04:43:24.506Z,780.00
2019-04-26T04:44:23.760Z,778.00
2019-04-26T04:45:24.025Z,780.00
2019-04-26T04:46:25.611Z,780.00
2019-04-26T04:47:25.801Z,780.00
2019-04-26T04:48:25.438Z,778.00
2019-04-26T04:49:26.887Z,777.00
2019-04-26T04:50:27.256Z,778.00
2019-04-26T04:51:27.801Z,778.00
2019-04-26T04:52:28.294Z,776.00
2019-04-26T04:53:28.753Z,777.00
2019-04-26T04:54:29.114Z,777.00
2019-04-26T04:55:29.485Z,776.00
2019-04-26T04:56:29.755Z,778.00
2019-04-26T04:57:30.380Z,776.00
2019-04-26T04:58:29.680Z,780.00
2019-04-26T04:59:30.958Z,780.00
2019-04-26T05:00:31.262Z,780.00
2019-04-26T05:01:32.017Z,782.00
2019-04-26T05:02:31.385Z,781.00
2019-04-26T05:03:31.705Z,780.00
2019-04-26T05:04:33.015Z,778.00
2019-04-26T05:05:33.242Z,776.00
2019-04-26T05:06:33.747Z,778.00
2019-04-26T05:07:34.050Z,778.00
2019-04-26T05:08:34.449Z,776.00
2019-04-26T05:09:34.762Z,776.00
2019-04-26T05:10:35.209Z,776.00
2019-04-26T05:11:35.554Z,776.00
2019-04-26T05:12:34.869Z,775.00
2019-04-26T05:13:36.160Z,776.00
2019-04-26T05:14:36.539Z,776.00
2019-04-26T05:15:37.054Z,775.00
2019-04-26T05:16:37.388Z,776.00
2019-04-26T05:17:37.742Z,776.00
2019-04-26T05:18:38.061Z,775.00
2019-04-26T05:19:38.357Z,775.00
2019-04-26T05:20:38.684Z,776.00
2019-04-26T05:21:39.111Z,777.00
2019-04-26T05:22:39.390Z,776.00
2019-04-26T05:23:39.668Z,777.00
2019-04-26T05:24:40.094Z,776.00
2019-04-26T05:25:40.592Z,776.00
2019-04-26T05:26:39.697Z,776.00
2019-04-26T05:27:40.969Z,776.00
2019-04-26T05:28:41.259Z,776.00
2019-04-26T05:29:41.743Z,778.00
2019-04-26T05:30:42.593Z,778.00
2019-04-26T05:31:45.818Z,776.00
2019-04-26T05:32:42.481Z,776.00
2019-04-26T05:33:43.831Z,775.00
2019-04-26T05:33:52.553Z,775.00
2019-04-26T05:34:52.915Z,775.00
2019-04-26T05:35:53.230Z,774.00
2019-04-26T05:36:56.807Z,775.00
2019-04-26T05:37:55.179Z,776.00
2019-04-26T05:38:55.365Z,776.00
2019-04-26T05:39:55.318Z,777.00
2019-04-26T05:40:55.643Z,776.00
2019-04-26T05:41:55.717Z,777.00
2019-04-26T05:42:55.951Z,777.00
2019-04-26T05:43:58.006Z,777.00
2019-04-26T05:44:56.792Z,778.00
2019-04-26T05:45:58.084Z,780.00
2019-04-26T05:46:57.900Z,778.00
2019-04-26T05:48:08.236Z,778.00
2019-04-26T05:48:58.498Z,780.00
2019-04-26T05:49:59.833Z,778.00
2019-04-26T05:51:00.307Z,781.00
2019-04-26T05:52:02.063Z,782.00
2019-04-26T05:53:00.365Z,782.00
2019-04-26T05:54:01.730Z,783.00
2019-04-26T05:55:02.693Z,785.00
2019-04-26T05:56:02.509Z,785.00
2019-04-26T05:57:02.659Z,783.00
2019-04-26T05:58:02.902Z,782.00
2019-04-26T05:59:03.099Z,781.00
2019-04-26T06:00:03.026Z,782.00
2019-04-26T06:01:04.111Z,780.00
2019-04-26T06:02:04.649Z,780.00
2019-04-26T06:03:05.439Z,778.00
2019-04-26T06:04:06.109Z,781.00
2019-04-26T06:05:06.266Z,783.00
2019-04-26T06:06:06.849Z,783.00
2019-04-26T06:07:07.329Z,783.00
2019-04-26T06:08:07.826Z,783.00
2019-04-26T06:09:08.257Z,783.00
2019-04-26T06:10:08.681Z,784.00
2019-04-26T06:11:09.306Z,783.00
2019-04-26T06:12:12.393Z,782.00
2019-04-26T06:13:09.248Z,783.00
2019-04-26T06:14:11.164Z,782.00
2019-04-26T06:15:11.799Z,782.00
2019-04-26T06:16:12.204Z,782.00
2019-04-26T06:17:12.959Z,783.00
2019-04-26T06:18:13.668Z,784.00
2019-04-26T06:19:14.247Z,784.00
2019-04-26T06:20:22.654Z,783.00
2019-04-26T06:21:14.567Z,782.00
2019-04-26T06:22:16.058Z,781.00
2019-04-26T06:23:16.595Z,783.00
2019-04-26T06:24:17.186Z,783.00
2019-04-26T06:25:17.599Z,783.00
2019-04-26T06:26:18.296Z,786.00
2019-04-26T06:27:18.791Z,784.00
2019-04-26T06:28:19.296Z,783.00
2019-04-26T06:29:19.963Z,782.00
2019-04-26T06:30:20.490Z,783.00
2019-04-26T06:31:21.059Z,782.00
2019-04-26T06:32:21.761Z,780.00
2019-04-26T06:33:21.307Z,780.00
2019-04-26T06:34:22.841Z,780.00
2019-04-26T06:34:31.398Z,780.00
2019-04-26T06:35:33.149Z,780.00
2019-04-26T06:36:33.791Z,782.00
2019-04-26T06:37:34.302Z,780.00
2019-04-26T06:38:43.739Z,781.00
2019-04-26T06:39:34.214Z,780.00
2019-04-26T06:40:41.793Z,780.00
2019-04-26T06:41:35.138Z,778.00
2019-04-26T06:42:35.738Z,780.00
2019-04-26T06:43:37.343Z,778.00
2019-04-26T06:44:37.774Z,778.00
2019-04-26T06:45:38.277Z,778.00
2019-04-26T06:46:38.757Z,777.00
2019-04-26T06:47:39.213Z,778.00
2019-04-26T06:48:39.715Z,778.00
2019-04-26T06:49:40.335Z,778.00
2019-04-26T06:50:40.856Z,778.00
2019-04-26T06:51:41.430Z,780.00
2019-04-26T06:52:42.037Z,778.00
2019-04-26T06:53:42.520Z,780.00
2019-04-26T06:54:43.068Z,782.00
2019-04-26T06:55:43.480Z,777.00
2019-04-26T06:56:44.203Z,776.00
2019-04-26T06:57:44.926Z,777.00
2019-04-26T06:58:45.618Z,778.00
2019-04-26T06:59:45.994Z,780.00
2019-04-26T07:00:46.895Z,780.00
2019-04-26T07:01:47.421Z,778.00
2019-04-26T07:02:47.998Z,778.00
2019-04-26T07:03:48.398Z,780.00
2019-04-26T07:04:48.881Z,778.00
2019-04-26T07:05:49.436Z,777.00
2019-04-26T07:06:49.894Z,780.00
2019-04-26T07:07:49.493Z,782.00
2019-04-26T07:08:57.696Z,778.00
2019-04-26T07:09:50.617Z,778.00
2019-04-26T07:10:52.168Z,780.00
2019-04-26T07:11:51.114Z,778.00
2019-04-26T07:12:52.748Z,780.00
2019-04-26T07:13:53.247Z,778.00
2019-04-26T07:14:54.128Z,778.00
2019-04-26T07:15:54.663Z,776.00
2019-04-26T07:16:55.208Z,776.00
2019-04-26T07:17:55.579Z,778.00
2019-04-26T07:18:56.238Z,777.00
2019-04-26T07:19:58.523Z,776.00
2019-04-26T07:20:56.228Z,780.00
2019-04-26T07:21:57.770Z,782.00
2019-04-26T07:22:58.211Z,782.00
2019-04-26T07:23:58.573Z,782.00
2019-04-26T07:24:07.114Z,782.00
2019-04-26T07:25:08.978Z,782.00
2019-04-26T07:26:08.192Z,783.00
2019-04-26T07:27:09.403Z,781.00
2019-04-26T07:28:12.218Z,782.00
2019-04-26T07:29:11.273Z,783.00
2019-04-26T07:30:12.029Z,782.00
2019-04-26T07:31:11.341Z,780.00
2019-04-26T07:32:11.792Z,781.00
2019-04-26T07:33:13.260Z,782.00
2019-04-26T07:34:13.843Z,781.00
2019-04-26T07:35:14.341Z,780.00
2019-04-26T07:36:14.817Z,780.00
2019-04-26T07:37:15.194Z,778.00
2019-04-26T07:38:15.567Z,778.00
2019-04-26T07:39:20.371Z,778.00
2019-04-26T07:40:15.457Z,776.00
2019-04-26T07:41:16.897Z,776.00
2019-04-26T07:42:17.313Z,777.00
2019-04-26T07:43:17.902Z,780.00
2019-04-26T07:44:18.106Z,783.00
2019-04-26T07:45:18.693Z,783.00
2019-04-26T07:46:19.477Z,783.00
2019-04-26T07:47:19.957Z,784.00
2019-04-26T07:48:20.581Z,783.00
2019-04-26T07:49:21.059Z,784.00
2019-04-26T07:50:21.607Z,784.00
2019-04-26T07:51:22.192Z,783.00
2019-04-26T07:52:22.610Z,782.00
2019-04-26T07:53:23.067Z,782.00
2019-04-26T07:54:23.488Z,784.00
2019-04-26T07:55:24.319Z,784.00
2019-04-26T07:56:24.030Z,784.00
2019-04-26T07:57:24.468Z,785.00
2019-04-26T07:58:25.865Z,784.00
2019-04-26T07:59:26.406Z,784.00
2019-04-26T08:00:26.852Z,784.00
2019-04-26T08:01:26.930Z,784.00
2019-04-26T08:02:27.436Z,785.00
2019-04-26T08:03:28.313Z,784.00
2019-04-26T08:04:29.606Z,786.00
2019-04-26T08:05:28.380Z,786.00
2019-04-26T08:06:29.979Z,786.00
2019-04-26T08:07:30.685Z,787.00
2019-04-26T08:08:31.299Z,786.00
2019-04-26T08:09:31.739Z,785.00
2019-04-26T08:10:32.389Z,784.00
2019-04-26T08:11:32.989Z,783.00
2019-04-26T08:12:33.427Z,783.00
2019-04-26T08:13:34.082Z,780.00
2019-04-26T08:14:34.619Z,777.00
2019-04-26T08:14:43.181Z,778.00
2019-04-26T08:15:44.662Z,777.00
2019-04-26T08:16:45.255Z,778.00
2019-04-26T08:17:45.658Z,778.00
2019-04-26T08:18:46.122Z,780.00
2019-04-26T08:19:46.618Z,778.00
2019-04-26T08:20:48.342Z,778.00
2019-04-26T08:21:47.966Z,780.00
2019-04-26T08:22:46.906Z,782.00
2019-04-26T08:23:48.327Z,783.00
2019-04-26T08:24:48.720Z,784.00
2019-04-26T08:25:49.161Z,784.00
2019-04-26T08:26:49.911Z,784.00
2019-04-26T08:27:49.928Z,782.00
2019-04-26T08:28:50.394Z,783.00
2019-04-26T08:29:50.906Z,782.00
2019-04-26T08:30:51.324Z,780.00
2019-04-26T08:31:53.627Z,780.00
2019-04-26T08:32:52.259Z,782.00
2019-04-26T08:33:52.344Z,783.00
2019-04-26T08:34:54.288Z,783.00
2019-04-26T08:35:53.501Z,782.00
2019-04-26T08:36:57.272Z,780.00
2019-04-26T08:37:54.739Z,783.00
2019-04-26T08:38:57.177Z,783.00
2019-04-26T08:39:56.772Z,780.00
2019-04-26T08:41:00.518Z,784.00
2019-04-26T08:41:57.390Z,783.00
2019-04-26T08:42:59.072Z,782.00
2019-04-26T08:44:03.254Z,780.00
2019-04-26T08:44:59.349Z,781.00
2019-04-26T08:46:03.073Z,783.00
2019-04-26T08:47:00.927Z,782.00
2019-04-26T08:48:01.334Z,783.00
2019-04-26T08:49:06.490Z,781.00
2019-04-26T08:50:02.558Z,780.00
2019-04-26T08:51:04.165Z,776.00
2019-04-26T08:52:13.909Z,776.00
2019-04-26T08:53:04.315Z,775.00
2019-04-26T08:54:06.059Z,774.00
2019-04-26T08:55:06.751Z,776.00
2019-04-26T08:56:06.363Z,778.00
2019-04-26T08:57:06.903Z,781.00
2019-04-26T08:58:08.270Z,780.00
2019-04-26T08:59:07.662Z,780.00
2019-04-26T09:00:09.530Z,777.00
2019-04-26T09:01:10.237Z,777.00
2019-04-26T09:02:11.059Z,778.00
2019-04-26T09:03:12.041Z,776.00
2019-04-26T09:04:10.841Z,776.00
2019-04-26T09:05:12.358Z,778.00
2019-04-26T09:06:12.870Z,783.00
2019-04-26T09:07:13.148Z,780.00
2019-04-26T09:08:13.277Z,777.00
2019-04-26T09:09:14.416Z,778.00
2019-04-26T09:10:13.552Z,777.00
2019-04-26T09:11:25.638Z,778.00
2019-04-26T09:12:22.868Z,778.00
2019-04-26T09:13:15.359Z,775.00
2019-04-26T09:13:23.922Z,775.00
2019-04-26T09:14:25.318Z,776.00
2019-04-26T09:15:26.074Z,775.00
2019-04-26T09:16:25.591Z,776.00
2019-04-26T09:17:27.726Z,776.00
2019-04-26T09:18:27.890Z,775.00
2019-04-26T09:19:30.588Z,776.00
2019-04-26T09:20:29.876Z,775.00
2019-04-26T09:21:28.978Z,775.00
2019-04-26T09:22:29.368Z,774.00
2019-04-26T09:23:39.944Z,776.00
2019-04-26T09:24:30.406Z,775.00
2019-04-26T09:25:34.458Z,774.00
2019-04-26T09:26:31.776Z,773.00
2019-04-26T09:27:32.177Z,775.00
2019-04-26T09:28:34.613Z,774.00
2019-04-26T09:29:34.026Z,775.00
2019-04-26T09:30:38.202Z,774.00
2019-04-26T09:31:34.045Z,775.00
2019-04-26T09:32:35.470Z,775.00
2019-04-26T09:33:37.431Z,780.00
2019-04-26T09:34:35.586Z,780.00
2019-04-26T09:35:37.070Z,778.00
2019-04-26T09:36:37.591Z,776.00
2019-04-26T09:37:38.063Z,778.00
2019-04-26T09:38:38.625Z,778.00
2019-04-26T09:39:41.553Z,776.00
2019-04-26T09:40:38.570Z,776.00
2019-04-26T09:41:40.421Z,776.00
2019-04-26T09:42:41.072Z,775.00
2019-04-26T09:43:40.443Z,776.00
2019-04-26T09:44:43.018Z,778.00
2019-04-26T09:45:41.350Z,782.00
2019-04-26T09:46:44.383Z,777.00
2019-04-26T09:47:42.370Z,776.00
2019-04-26T09:48:44.106Z,776.00
2019-04-26T09:49:44.070Z,777.00
2019-04-26T09:50:44.724Z,775.00
2019-04-26T09:51:46.247Z,776.00
2019-04-26T09:52:45.585Z,776.00
2019-04-26T09:53:47.057Z,775.00
2019-04-26T09:54:47.493Z,776.00
2019-04-26T09:55:47.912Z,774.00
2019-04-26T09:56:48.481Z,773.00
2019-04-26T09:57:49.013Z,776.00
2019-04-26T09:58:49.645Z,778.00
2019-04-26T09:59:50.164Z,776.00
2019-04-26T10:00:50.620Z,776.00
2019-04-26T10:01:51.081Z,775.00
2019-04-26T10:02:51.537Z,774.00
2019-04-26T10:03:52.337Z,774.00
2019-04-26T10:04:53.348Z,773.00
2019-04-26T10:05:55.881Z,773.00
2019-04-26T10:06:53.363Z,772.00
2019-04-26T10:07:54.803Z,772.00
2019-04-26T10:08:55.377Z,772.00
2019-04-26T10:09:56.481Z,772.00
2019-04-26T10:10:55.251Z,772.00
2019-04-26T10:11:56.821Z,772.00
2019-04-26T10:12:57.219Z,772.00
2019-04-26T10:13:05.780Z,772.00
2019-04-26T10:14:07.299Z,772.00
2019-04-26T10:15:07.344Z,772.00
2019-04-26T10:16:07.897Z,772.00
2019-04-26T10:17:11.594Z,772.00
2019-04-26T10:18:08.302Z,772.00
2019-04-26T10:19:08.578Z,770.00
2019-04-26T10:20:10.033Z,769.00
2019-04-26T10:21:10.880Z,770.00
2019-04-26T10:22:11.547Z,769.00
2019-04-26T10:23:11.995Z,772.00
2019-04-26T10:24:12.431Z,773.00
2019-04-26T10:25:16.570Z,773.00
2019-04-26T10:26:12.441Z,774.00
2019-04-26T10:27:14.019Z,775.00
2019-04-26T10:28:15.988Z,776.00
2019-04-26T10:29:13.755Z,775.00
2019-04-26T10:30:15.191Z,774.00
2019-04-26T10:31:17.231Z,775.00
2019-04-26T10:32:14.934Z,775.00
2019-04-26T10:33:16.647Z,775.00
2019-04-26T10:34:17.003Z,773.00
2019-04-26T10:35:17.503Z,774.00
2019-04-26T10:36:16.527Z,775.00
2019-04-26T10:37:18.024Z,775.00
2019-04-26T10:38:19.317Z,775.00
2019-04-26T10:39:18.349Z,774.00
2019-04-26T10:40:20.277Z,773.00
2019-04-26T10:41:20.840Z,773.00
2019-04-26T10:42:21.296Z,773.00
2019-04-26T10:43:21.855Z,770.00
2019-04-26T10:44:22.362Z,772.00
2019-04-26T10:45:23.232Z,773.00
2019-04-26T10:46:24.569Z,772.00
2019-04-26T10:47:23.138Z,773.00
2019-04-26T10:48:24.623Z,773.00
2019-04-26T10:49:26.063Z,774.00
2019-04-26T10:50:24.502Z,773.00
2019-04-26T10:51:25.886Z,773.00
2019-04-26T10:52:26.390Z,773.00
2019-04-26T10:53:30.005Z,772.00
2019-04-26T10:54:26.239Z,770.00
2019-04-26T10:55:27.760Z,770.00
2019-04-26T10:56:28.362Z,774.00
2019-04-26T10:57:28.928Z,773.00
2019-04-26T10:58:31.852Z,772.00
2019-04-26T10:59:31.662Z,770.00
2019-04-26T11:00:29.679Z,770.00
2019-04-26T11:01:30.181Z,770.00
2019-04-26T11:02:31.819Z,769.00
2019-04-26T11:03:34.946Z,770.00
2019-04-26T11:04:32.025Z,769.00
2019-04-26T11:05:33.051Z,769.00
2019-04-26T11:06:33.777Z,769.00
2019-04-26T11:07:34.380Z,768.00
2019-04-26T11:07:43.437Z,769.00
2019-04-26T11:08:44.773Z,768.00
2019-04-26T11:09:45.360Z,768.00
2019-04-26T11:10:48.922Z,773.00
2019-04-26T11:11:45.218Z,774.00
2019-04-26T11:12:46.873Z,776.00
2019-04-26T11:13:47.493Z,775.00
2019-04-26T11:14:48.194Z,775.00
2019-04-26T11:15:47.537Z,773.00
2019-04-26T11:16:49.179Z,773.00
2019-04-26T11:17:50.130Z,772.00
2019-04-26T11:18:49.141Z,773.00
2019-04-26T11:19:50.253Z,772.00
2019-04-26T11:20:51.079Z,772.00
2019-04-26T11:21:54.725Z,771.00
2019-04-26T11:22:51.523Z,772.00
2019-04-26T11:23:53.235Z,770.00
2019-04-26T11:24:54.805Z,772.00
2019-04-26T11:25:53.473Z,772.00
2019-04-26T11:26:53.868Z,769.00
2019-04-26T11:27:55.219Z,769.00
2019-04-26T11:28:57.151Z,770.00
2019-04-26T11:29:55.268Z,770.00
2019-04-26T11:30:57.371Z,770.00
2019-04-26T11:31:58.525Z,770.00
2019-04-26T11:32:56.506Z,773.00
2019-04-26T11:34:05.109Z,772.00
2019-04-26T11:34:58.793Z,773.00
2019-04-26T11:35:58.614Z,773.00
2019-04-26T11:37:00.198Z,770.00
2019-04-26T11:38:00.894Z,770.00
2019-04-26T11:39:01.307Z,770.00
2019-04-26T11:40:00.923Z,769.00
2019-04-26T11:41:06.114Z,772.00
2019-04-26T11:42:01.764Z,770.00
2019-04-26T11:43:03.574Z,770.00
2019-04-26T11:44:03.926Z,773.00
2019-04-26T11:45:06.320Z,770.00
2019-04-26T11:46:04.898Z,771.00
2019-04-26T11:47:07.807Z,771.00
2019-04-26T11:48:04.588Z,770.00
2019-04-26T11:49:07.196Z,770.00
2019-04-26T11:50:05.592Z,769.00
2019-04-26T11:51:06.497Z,769.00
2019-04-26T11:52:07.997Z,769.00
2019-04-26T11:53:10.115Z,769.00
2019-04-26T11:54:08.011Z,768.00
2019-04-26T11:55:09.582Z,768.00
2019-04-26T11:56:10.240Z,769.00
2019-04-26T11:57:11.965Z,768.00
2019-04-26T11:58:10.654Z,766.00
2019-04-26T11:59:12.679Z,768.00
2019-04-26T12:00:13.184Z,769.00
2019-04-26T12:01:13.725Z,770.00
2019-04-26T12:02:16.190Z,769.00
2019-04-26T12:03:13.972Z,769.00
2019-04-26T12:04:15.743Z,768.00
2019-04-26T12:05:16.370Z,766.00
2019-04-26T12:06:17.166Z,766.00
2019-04-26T12:07:17.743Z,768.00
2019-04-26T12:08:18.195Z,766.00
2019-04-26T12:09:18.684Z,768.00
2019-04-26T12:10:19.116Z,766.00
2019-04-26T12:10:33.690Z,766.00
2019-04-26T12:11:35.387Z,766.00
2019-04-26T12:12:34.805Z,768.00
2019-04-26T12:13:36.413Z,772.00
2019-04-26T12:14:35.875Z,772.00
2019-04-26T12:15:39.078Z,773.00
2019-04-26T12:16:48.094Z,770.00
2019-04-26T12:17:38.003Z,769.00
2019-04-26T12:18:40.310Z,770.00
2019-04-26T12:19:38.990Z,769.00
2019-04-26T12:20:40.630Z,768.00
2019-04-26T12:21:39.814Z,769.00
2019-04-26T12:22:43.311Z,770.00
2019-04-26T12:23:41.317Z,774.00
2019-04-26T12:24:43.181Z,773.00